sensor_id;sensor_type;location;lat;lon;timestamp;P1;durP1;ratioP1;P2;durP2;ratioP2
76021;SDS011;64718;52.124;6.226;2023-03-01T00:00:04;6.60;;;3.60;;
76021;SDS011;64718;52.124;6.226;2023-03-01T00:02:32;5.65;;;3.80;;
76021;SDS011;64718;52.124;6.226;2023-03-01T00:04:58;8.38;;;3.67;;
76021;SDS011;64718;52.124;6.226;2023-03-01T00:07:25;7.63;;;4.13;;
76021;SDS011;64718;52.124;6.226;2023-03-01T00:09:52;9.63;;;4.95;;
76021;SDS011;64718;52.124;6.226;2023-03-01T00:12:19;10.25;;;4.38;;
76021;SDS011;64718;52.124;6.226;2023-03-01T00:14:45;9.75;;;5.13;;
76021;SDS011;64718;52.124;6.226;2023-03-01T00:17:12;9.32;;;6.45;;
76021;SDS011;64718;52.124;6.226;2023-03-01T00:19:39;8.55;;;4.88;;
76021;SDS011;64718;52.124;6.226;2023-03-01T00:22:05;7.47;;;4.53;;
76021;SDS011;64718;52.124;6.226;2023-03-01T00:24:32;8.38;;;4.70;;
76021;SDS011;64718;52.124;6.226;2023-03-01T00:27:00;9.00;;;4.95;;
76021;SDS011;64718;52.124;6.226;2023-03-01T00:29:26;7.95;;;4.43;;
76021;SDS011;64718;52.124;6.226;2023-03-01T00:31:53;9.75;;;5.50;;
76021;SDS011;64718;52.124;6.226;2023-03-01T00:34:20;8.40;;;4.55;;
76021;SDS011;64718;52.124;6.226;2023-03-01T00:36:46;10.60;;;5.88;;
76021;SDS011;64718;52.124;6.226;2023-03-01T00:39:14;9.82;;;5.43;;
76021;SDS011;64718;52.124;6.226;2023-03-01T00:41:41;10.07;;;5.40;;
76021;SDS011;64718;52.124;6.226;2023-03-01T00:44:09;9.98;;;4.72;;
76021;SDS011;64718;52.124;6.226;2023-03-01T00:46:37;8.27;;;5.10;;
76021;SDS011;64718;52.124;6.226;2023-03-01T00:49:04;7.40;;;4.40;;
76021;SDS011;64718;52.124;6.226;2023-03-01T00:51:31;8.75;;;5.45;;
76021;SDS011;64718;52.124;6.226;2023-03-01T00:53:59;9.25;;;4.63;;
76021;SDS011;64718;52.124;6.226;2023-03-01T00:56:26;7.97;;;4.65;;
76021;SDS011;64718;52.124;6.226;2023-03-01T00:58:54;9.60;;;4.57;;
76021;SDS011;64718;52.124;6.226;2023-03-01T01:01:23;7.45;;;4.55;;
76021;SDS011;64718;52.124;6.226;2023-03-01T01:03:53;8.27;;;3.78;;
76021;SDS011;64718;52.124;6.226;2023-03-01T01:06:21;10.13;;;5.00;;
76021;SDS011;64718;52.124;6.226;2023-03-01T01:08:49;8.35;;;4.85;;
76021;SDS011;64718;52.124;6.226;2023-03-01T01:11:17;7.63;;;3.92;;
76021;SDS011;64718;52.124;6.226;2023-03-01T01:13:45;9.50;;;4.88;;
76021;SDS011;64718;52.124;6.226;2023-03-01T01:16:13;7.25;;;3.88;;
76021;SDS011;64718;52.124;6.226;2023-03-01T01:18:41;5.60;;;4.25;;
76021;SDS011;64718;52.124;6.226;2023-03-01T01:21:09;9.38;;;4.57;;
76021;SDS011;64718;52.124;6.226;2023-03-01T01:23:37;8.77;;;4.18;;
76021;SDS011;64718;52.124;6.226;2023-03-01T01:26:05;10.25;;;4.32;;
76021;SDS011;64718;52.124;6.226;2023-03-01T01:28:33;6.18;;;3.53;;
76021;SDS011;64718;52.124;6.226;2023-03-01T01:30:59;7.68;;;4.32;;
76021;SDS011;64718;52.124;6.226;2023-03-01T01:33:26;7.90;;;5.15;;
76021;SDS011;64718;52.124;6.226;2023-03-01T01:35:54;8.10;;;3.85;;
76021;SDS011;64718;52.124;6.226;2023-03-01T01:38:21;7.47;;;4.18;;
76021;SDS011;64718;52.124;6.226;2023-03-01T01:40:48;6.68;;;3.75;;
76021;SDS011;64718;52.124;6.226;2023-03-01T01:43:16;8.15;;;3.75;;
76021;SDS011;64718;52.124;6.226;2023-03-01T01:45:46;8.38;;;3.88;;
76021;SDS011;64718;52.124;6.226;2023-03-01T01:48:14;6.63;;;3.97;;
76021;SDS011;64718;52.124;6.226;2023-03-01T01:50:45;6.60;;;5.28;;
76021;SDS011;64718;52.124;6.226;2023-03-01T01:53:17;5.35;;;3.22;;
76021;SDS011;64718;52.124;6.226;2023-03-01T01:55:47;7.35;;;4.20;;
76021;SDS011;64718;52.124;6.226;2023-03-01T01:58:18;8.13;;;3.50;;
76021;SDS011;64718;52.124;6.226;2023-03-01T02:00:47;7.53;;;4.00;;
76021;SDS011;64718;52.124;6.226;2023-03-01T02:03:16;8.23;;;3.45;;
76021;SDS011;64718;52.124;6.226;2023-03-01T02:05:47;6.05;;;3.38;;
76021;SDS011;64718;52.124;6.226;2023-03-01T02:08:22;5.13;;;2.65;;
76021;SDS011;64718;52.124;6.226;2023-03-01T02:10:52;5.53;;;3.13;;
76021;SDS011;64718;52.124;6.226;2023-03-01T02:13:20;5.93;;;3.38;;
76021;SDS011;64718;52.124;6.226;2023-03-01T02:15:48;6.43;;;3.38;;
76021;SDS011;64718;52.124;6.226;2023-03-01T02:18:16;7.45;;;3.88;;
76021;SDS011;64718;52.124;6.226;2023-03-01T02:23:17;4.07;;;2.63;;
76021;SDS011;64718;52.124;6.226;2023-03-01T02:25:46;8.00;;;3.08;;
76021;SDS011;64718;52.124;6.226;2023-03-01T02:28:22;4.97;;;3.05;;
76021;SDS011;64718;52.124;6.226;2023-03-01T02:30:50;7.03;;;3.30;;
76021;SDS011;64718;52.124;6.226;2023-03-01T02:33:35;4.93;;;3.03;;
76021;SDS011;64718;52.124;6.226;2023-03-01T02:36:04;5.82;;;2.55;;
76021;SDS011;64718;52.124;6.226;2023-03-01T02:38:34;5.90;;;3.22;;
76021;SDS011;64718;52.124;6.226;2023-03-01T02:41:00;5.93;;;3.20;;
76021;SDS011;64718;52.124;6.226;2023-03-01T02:43:32;7.50;;;3.17;;
76021;SDS011;64718;52.124;6.226;2023-03-01T02:46:03;6.22;;;3.13;;
76021;SDS011;64718;52.124;6.226;2023-03-01T02:48:39;5.05;;;3.38;;
76021;SDS011;64718;52.124;6.226;2023-03-01T02:51:14;5.35;;;3.17;;
76021;SDS011;64718;52.124;6.226;2023-03-01T02:53:53;6.25;;;3.25;;
76021;SDS011;64718;52.124;6.226;2023-03-01T02:56:30;9.73;;;3.55;;
76021;SDS011;64718;52.124;6.226;2023-03-01T02:58:59;6.95;;;3.95;;
76021;SDS011;64718;52.124;6.226;2023-03-01T03:01:27;4.95;;;3.22;;
76021;SDS011;64718;52.124;6.226;2023-03-01T03:04:02;4.47;;;2.88;;
76021;SDS011;64718;52.124;6.226;2023-03-01T03:06:32;5.35;;;3.10;;
76021;SDS011;64718;52.124;6.226;2023-03-01T03:08:59;5.72;;;3.17;;
76021;SDS011;64718;52.124;6.226;2023-03-01T03:11:26;5.13;;;3.30;;
76021;SDS011;64718;52.124;6.226;2023-03-01T03:13:53;6.93;;;3.38;;
76021;SDS011;64718;52.124;6.226;2023-03-01T03:16:21;6.95;;;3.60;;
76021;SDS011;64718;52.124;6.226;2023-03-01T03:18:48;5.50;;;2.85;;
76021;SDS011;64718;52.124;6.226;2023-03-01T03:21:14;5.65;;;3.17;;
76021;SDS011;64718;52.124;6.226;2023-03-01T03:23:42;6.10;;;3.42;;
76021;SDS011;64718;52.124;6.226;2023-03-01T03:26:09;6.05;;;4.57;;
76021;SDS011;64718;52.124;6.226;2023-03-01T03:28:38;6.18;;;3.63;;
76021;SDS011;64718;52.124;6.226;2023-03-01T03:31:05;6.95;;;4.43;;
76021;SDS011;64718;52.124;6.226;2023-03-01T03:33:33;6.13;;;3.83;;
76021;SDS011;64718;52.124;6.226;2023-03-01T03:36:00;7.90;;;3.72;;
76021;SDS011;64718;52.124;6.226;2023-03-01T03:38:27;7.40;;;4.13;;
76021;SDS011;64718;52.124;6.226;2023-03-01T03:40:59;8.85;;;3.80;;
76021;SDS011;64718;52.124;6.226;2023-03-01T03:43:27;5.45;;;3.38;;
76021;SDS011;64718;52.124;6.226;2023-03-01T03:45:54;5.78;;;3.55;;
76021;SDS011;64718;52.124;6.226;2023-03-01T03:48:22;5.35;;;3.70;;
76021;SDS011;64718;52.124;6.226;2023-03-01T03:50:51;7.45;;;3.67;;
76021;SDS011;64718;52.124;6.226;2023-03-01T03:53:19;7.93;;;4.07;;
76021;SDS011;64718;52.124;6.226;2023-03-01T03:55:46;7.07;;;3.90;;
76021;SDS011;64718;52.124;6.226;2023-03-01T03:58:14;8.30;;;4.45;;
76021;SDS011;64718;52.124;6.226;2023-03-01T04:00:44;6.47;;;3.42;;
76021;SDS011;64718;52.124;6.226;2023-03-01T04:03:12;7.22;;;4.07;;
76021;SDS011;64718;52.124;6.226;2023-03-01T04:08:09;7.40;;;4.00;;
76021;SDS011;64718;52.124;6.226;2023-03-01T04:10:37;6.88;;;3.92;;
76021;SDS011;64718;52.124;6.226;2023-03-01T04:13:05;6.55;;;3.90;;
76021;SDS011;64718;52.124;6.226;2023-03-01T04:15:33;6.57;;;4.05;;
76021;SDS011;64718;52.124;6.226;2023-03-01T04:18:00;7.55;;;4.43;;
76021;SDS011;64718;52.124;6.226;2023-03-01T04:20:28;7.05;;;4.22;;
76021;SDS011;64718;52.124;6.226;2023-03-01T04:22:59;6.85;;;4.43;;
76021;SDS011;64718;52.124;6.226;2023-03-01T04:25:36;6.60;;;3.97;;
76021;SDS011;64718;52.124;6.226;2023-03-01T04:28:04;8.75;;;5.15;;
76021;SDS011;64718;52.124;6.226;2023-03-01T04:30:30;7.82;;;3.65;;
76021;SDS011;64718;52.124;6.226;2023-03-01T04:33:00;7.28;;;3.88;;
76021;SDS011;64718;52.124;6.226;2023-03-01T04:35:28;7.95;;;4.50;;
76021;SDS011;64718;52.124;6.226;2023-03-01T04:37:54;7.75;;;4.05;;
76021;SDS011;64718;52.124;6.226;2023-03-01T04:40:21;6.55;;;3.70;;
76021;SDS011;64718;52.124;6.226;2023-03-01T04:42:49;7.70;;;4.22;;
76021;SDS011;64718;52.124;6.226;2023-03-01T04:45:15;7.07;;;3.88;;
76021;SDS011;64718;52.124;6.226;2023-03-01T04:47:42;7.63;;;4.15;;
76021;SDS011;64718;52.124;6.226;2023-03-01T04:50:11;7.53;;;3.97;;
76021;SDS011;64718;52.124;6.226;2023-03-01T04:52:38;6.43;;;4.03;;
76021;SDS011;64718;52.124;6.226;2023-03-01T04:55:06;7.88;;;5.20;;
76021;SDS011;64718;52.124;6.226;2023-03-01T04:57:33;9.23;;;3.92;;
76021;SDS011;64718;52.124;6.226;2023-03-01T05:00:02;6.57;;;3.85;;
76021;SDS011;64718;52.124;6.226;2023-03-01T05:02:44;6.95;;;4.05;;
76021;SDS011;64718;52.124;6.226;2023-03-01T05:05:13;4.93;;;3.35;;
76021;SDS011;64718;52.124;6.226;2023-03-01T05:07:39;5.50;;;3.80;;
76021;SDS011;64718;52.124;6.226;2023-03-01T05:10:06;7.22;;;3.95;;
76021;SDS011;64718;52.124;6.226;2023-03-01T05:12:33;9.05;;;3.97;;
76021;SDS011;64718;52.124;6.226;2023-03-01T05:15:04;6.82;;;5.07;;
76021;SDS011;64718;52.124;6.226;2023-03-01T05:17:32;7.22;;;4.30;;
76021;SDS011;64718;52.124;6.226;2023-03-01T05:19:58;7.43;;;4.10;;
76021;SDS011;64718;52.124;6.226;2023-03-01T05:22:26;6.55;;;3.55;;
76021;SDS011;64718;52.124;6.226;2023-03-01T05:24:52;7.40;;;4.00;;
76021;SDS011;64718;52.124;6.226;2023-03-01T05:27:20;8.73;;;4.13;;
76021;SDS011;64718;52.124;6.226;2023-03-01T05:29:47;8.52;;;4.82;;
76021;SDS011;64718;52.124;6.226;2023-03-01T05:32:15;7.78;;;3.60;;
76021;SDS011;64718;52.124;6.226;2023-03-01T05:34:42;8.35;;;4.43;;
76021;SDS011;64718;52.124;6.226;2023-03-01T05:37:09;7.47;;;4.22;;
76021;SDS011;64718;52.124;6.226;2023-03-01T05:39:35;9.73;;;4.95;;
76021;SDS011;64718;52.124;6.226;2023-03-01T05:42:02;6.60;;;3.88;;
76021;SDS011;64718;52.124;6.226;2023-03-01T05:44:29;8.45;;;4.05;;
76021;SDS011;64718;52.124;6.226;2023-03-01T05:46:56;10.45;;;4.57;;
76021;SDS011;64718;52.124;6.226;2023-03-01T05:49:24;7.63;;;4.53;;
76021;SDS011;64718;52.124;6.226;2023-03-01T05:51:52;7.95;;;4.47;;
76021;SDS011;64718;52.124;6.226;2023-03-01T05:54:20;7.80;;;4.55;;
76021;SDS011;64718;52.124;6.226;2023-03-01T05:56:47;6.20;;;4.20;;
76021;SDS011;64718;52.124;6.226;2023-03-01T05:59:14;9.00;;;4.55;;
76021;SDS011;64718;52.124;6.226;2023-03-01T06:01:41;10.02;;;4.55;;
76021;SDS011;64718;52.124;6.226;2023-03-01T06:04:07;9.68;;;4.93;;
76021;SDS011;64718;52.124;6.226;2023-03-01T06:06:35;8.75;;;4.97;;
76021;SDS011;64718;52.124;6.226;2023-03-01T06:09:03;6.13;;;4.13;;
76021;SDS011;64718;52.124;6.226;2023-03-01T06:11:33;10.73;;;5.22;;
76021;SDS011;64718;52.124;6.226;2023-03-01T06:13:59;7.07;;;4.80;;
76021;SDS011;64718;52.124;6.226;2023-03-01T06:16:26;9.05;;;4.60;;
76021;SDS011;64718;52.124;6.226;2023-03-01T06:18:52;9.10;;;5.10;;
76021;SDS011;64718;52.124;6.226;2023-03-01T06:21:19;8.73;;;4.63;;
76021;SDS011;64718;52.124;6.226;2023-03-01T06:23:47;9.20;;;4.72;;
76021;SDS011;64718;52.124;6.226;2023-03-01T06:26:13;9.98;;;5.30;;
76021;SDS011;64718;52.124;6.226;2023-03-01T06:28:40;9.32;;;5.32;;
76021;SDS011;64718;52.124;6.226;2023-03-01T06:31:06;9.13;;;5.85;;
76021;SDS011;64718;52.124;6.226;2023-03-01T06:33:34;10.68;;;5.78;;
76021;SDS011;64718;52.124;6.226;2023-03-01T06:36:03;9.85;;;5.38;;
76021;SDS011;64718;52.124;6.226;2023-03-01T06:38:30;10.02;;;5.75;;
76021;SDS011;64718;52.124;6.226;2023-03-01T06:40:57;8.77;;;5.18;;
76021;SDS011;64718;52.124;6.226;2023-03-01T06:43:24;8.25;;;4.88;;
76021;SDS011;64718;52.124;6.226;2023-03-01T06:45:51;12.57;;;6.00;;
76021;SDS011;64718;52.124;6.226;2023-03-01T06:48:17;8.70;;;5.60;;
76021;SDS011;64718;52.124;6.226;2023-03-01T06:50:44;11.65;;;5.93;;
76021;SDS011;64718;52.124;6.226;2023-03-01T06:53:10;9.70;;;5.47;;
76021;SDS011;64718;52.124;6.226;2023-03-01T06:55:37;8.80;;;4.82;;
76021;SDS011;64718;52.124;6.226;2023-03-01T06:58:04;8.73;;;5.00;;
76021;SDS011;64718;52.124;6.226;2023-03-01T07:00:31;12.98;;;5.20;;
76021;SDS011;64718;52.124;6.226;2023-03-01T07:02:58;10.00;;;5.65;;
76021;SDS011;64718;52.124;6.226;2023-03-01T07:05:26;8.88;;;4.88;;
76021;SDS011;64718;52.124;6.226;2023-03-01T07:07:53;9.15;;;5.10;;
76021;SDS011;64718;52.124;6.226;2023-03-01T07:10:20;11.10;;;5.82;;
76021;SDS011;64718;52.124;6.226;2023-03-01T07:12:47;10.88;;;6.38;;
76021;SDS011;64718;52.124;6.226;2023-03-01T07:15:15;9.65;;;5.47;;
76021;SDS011;64718;52.124;6.226;2023-03-01T07:17:41;8.98;;;5.75;;
76021;SDS011;64718;52.124;6.226;2023-03-01T07:20:09;10.00;;;5.97;;
76021;SDS011;64718;52.124;6.226;2023-03-01T07:22:39;9.75;;;5.65;;
76021;SDS011;64718;52.124;6.226;2023-03-01T07:25:06;9.10;;;5.03;;
76021;SDS011;64718;52.124;6.226;2023-03-01T07:27:33;6.90;;;4.85;;
76021;SDS011;64718;52.124;6.226;2023-03-01T07:29:59;6.38;;;4.65;;
76021;SDS011;64718;52.124;6.226;2023-03-01T07:32:28;7.40;;;4.50;;
76021;SDS011;64718;52.124;6.226;2023-03-01T07:34:54;5.70;;;4.85;;
76021;SDS011;64718;52.124;6.226;2023-03-01T07:37:21;7.32;;;4.97;;
76021;SDS011;64718;52.124;6.226;2023-03-01T07:39:47;9.73;;;4.82;;
76021;SDS011;64718;52.124;6.226;2023-03-01T07:42:14;10.18;;;4.55;;
76021;SDS011;64718;52.124;6.226;2023-03-01T07:44:40;6.32;;;5.07;;
76021;SDS011;64718;52.124;6.226;2023-03-01T07:47:07;5.13;;;4.18;;
76021;SDS011;64718;52.124;6.226;2023-03-01T07:49:35;7.28;;;5.88;;
76021;SDS011;64718;52.124;6.226;2023-03-01T07:52:01;8.07;;;4.80;;
76021;SDS011;64718;52.124;6.226;2023-03-01T07:54:28;7.82;;;5.20;;
76021;SDS011;64718;52.124;6.226;2023-03-01T07:56:55;5.95;;;4.93;;
76021;SDS011;64718;52.124;6.226;2023-03-01T07:59:22;7.40;;;4.95;;
76021;SDS011;64718;52.124;6.226;2023-03-01T08:01:53;6.00;;;4.72;;
76021;SDS011;64718;52.124;6.226;2023-03-01T08:04:20;9.30;;;4.80;;
76021;SDS011;64718;52.124;6.226;2023-03-01T08:06:48;8.48;;;4.88;;
76021;SDS011;64718;52.124;6.226;2023-03-01T08:09:14;6.70;;;4.28;;
76021;SDS011;64718;52.124;6.226;2023-03-01T08:11:41;7.05;;;4.63;;
76021;SDS011;64718;52.124;6.226;2023-03-01T08:14:07;5.53;;;4.78;;
76021;SDS011;64718;52.124;6.226;2023-03-01T08:16:35;4.88;;;4.32;;
76021;SDS011;64718;52.124;6.226;2023-03-01T08:19:03;7.32;;;4.60;;
76021;SDS011;64718;52.124;6.226;2023-03-01T08:21:30;6.50;;;4.28;;
76021;SDS011;64718;52.124;6.226;2023-03-01T08:23:58;6.88;;;4.32;;
76021;SDS011;64718;52.124;6.226;2023-03-01T08:26:24;6.55;;;4.97;;
76021;SDS011;64718;52.124;6.226;2023-03-01T08:28:51;6.75;;;5.13;;
76021;SDS011;64718;52.124;6.226;2023-03-01T08:31:19;8.27;;;4.55;;
76021;SDS011;64718;52.124;6.226;2023-03-01T08:33:48;7.30;;;6.20;;
76021;SDS011;64718;52.124;6.226;2023-03-01T08:36:20;8.73;;;4.95;;
76021;SDS011;64718;52.124;6.226;2023-03-01T08:38:47;6.38;;;4.25;;
76021;SDS011;64718;52.124;6.226;2023-03-01T08:41:15;7.35;;;4.40;;
76021;SDS011;64718;52.124;6.226;2023-03-01T08:43:42;6.47;;;4.82;;
76021;SDS011;64718;52.124;6.226;2023-03-01T08:46:09;6.45;;;5.00;;
76021;SDS011;64718;52.124;6.226;2023-03-01T08:48:36;6.72;;;4.82;;
76021;SDS011;64718;52.124;6.226;2023-03-01T08:51:10;5.60;;;4.40;;
76021;SDS011;64718;52.124;6.226;2023-03-01T08:53:37;4.90;;;4.18;;
76021;SDS011;64718;52.124;6.226;2023-03-01T08:56:04;7.28;;;4.68;;
76021;SDS011;64718;52.124;6.226;2023-03-01T08:58:33;5.60;;;4.03;;
76021;SDS011;64718;52.124;6.226;2023-03-01T09:01:00;7.47;;;4.38;;
76021;SDS011;64718;52.124;6.226;2023-03-01T09:03:27;6.72;;;4.63;;
76021;SDS011;64718;52.124;6.226;2023-03-01T09:05:53;6.35;;;4.13;;
76021;SDS011;64718;52.124;6.226;2023-03-01T09:08:26;6.72;;;4.53;;
76021;SDS011;64718;52.124;6.226;2023-03-01T09:10:53;6.47;;;4.53;;
76021;SDS011;64718;52.124;6.226;2023-03-01T09:13:19;7.35;;;3.60;;
76021;SDS011;64718;52.124;6.226;2023-03-01T09:15:47;5.07;;;4.13;;
76021;SDS011;64718;52.124;6.226;2023-03-01T09:18:13;5.28;;;3.55;;
76021;SDS011;64718;52.124;6.226;2023-03-01T09:20:40;7.47;;;4.68;;
76021;SDS011;64718;52.124;6.226;2023-03-01T09:23:07;5.38;;;3.80;;
76021;SDS011;64718;52.124;6.226;2023-03-01T09:25:33;5.57;;;4.32;;
76021;SDS011;64718;52.124;6.226;2023-03-01T09:28:00;7.28;;;3.53;;
76021;SDS011;64718;52.124;6.226;2023-03-01T09:30:27;6.95;;;4.28;;
76021;SDS011;64718;52.124;6.226;2023-03-01T09:32:55;5.55;;;3.53;;
76021;SDS011;64718;52.124;6.226;2023-03-01T09:35:22;7.40;;;3.95;;
76021;SDS011;64718;52.124;6.226;2023-03-01T09:37:48;7.57;;;3.88;;
76021;SDS011;64718;52.124;6.226;2023-03-01T09:40:16;4.38;;;3.17;;
76021;SDS011;64718;52.124;6.226;2023-03-01T09:42:49;6.00;;;3.63;;
76021;SDS011;64718;52.124;6.226;2023-03-01T09:45:24;4.07;;;3.20;;
76021;SDS011;64718;52.124;6.226;2023-03-01T09:47:56;6.18;;;3.25;;
76021;SDS011;64718;52.124;6.226;2023-03-01T09:50:23;4.63;;;3.60;;
76021;SDS011;64718;52.124;6.226;2023-03-01T09:52:54;4.40;;;2.42;;
76021;SDS011;64718;52.124;6.226;2023-03-01T09:55:29;2.92;;;2.20;;
76021;SDS011;64718;52.124;6.226;2023-03-01T09:58:00;3.85;;;2.17;;
76021;SDS011;64718;52.124;6.226;2023-03-01T10:00:36;4.65;;;2.95;;
76021;SDS011;64718;52.124;6.226;2023-03-01T10:03:12;3.78;;;2.42;;
76021;SDS011;64718;52.124;6.226;2023-03-01T10:05:44;5.32;;;2.78;;
76021;SDS011;64718;52.124;6.226;2023-03-01T10:11:17;4.32;;;2.20;;
76021;SDS011;64718;52.124;6.226;2023-03-01T10:13:48;3.85;;;2.53;;
76021;SDS011;64718;52.124;6.226;2023-03-01T10:16:21;5.07;;;2.75;;
76021;SDS011;64718;52.124;6.226;2023-03-01T10:18:55;5.45;;;2.45;;
76021;SDS011;64718;52.124;6.226;2023-03-01T10:21:25;9.85;;;2.97;;
76021;SDS011;64718;52.124;6.226;2023-03-01T10:23:53;4.75;;;2.22;;
76021;SDS011;64718;52.124;6.226;2023-03-01T10:26:32;3.60;;;2.40;;
76021;SDS011;64718;52.124;6.226;2023-03-01T10:29:06;4.35;;;2.70;;
76021;SDS011;64718;52.124;6.226;2023-03-01T10:31:41;4.80;;;2.55;;
76021;SDS011;64718;52.124;6.226;2023-03-01T10:34:12;2.67;;;2.15;;
76021;SDS011;64718;52.124;6.226;2023-03-01T10:36:41;3.72;;;2.42;;
76021;SDS011;64718;52.124;6.226;2023-03-01T10:39:13;5.07;;;2.30;;
76021;SDS011;64718;52.124;6.226;2023-03-01T10:41:52;4.95;;;2.03;;
76021;SDS011;64718;52.124;6.226;2023-03-01T10:44:37;5.15;;;2.67;;
76021;SDS011;64718;52.124;6.226;2023-03-01T10:47:11;3.83;;;2.58;;
76021;SDS011;64718;52.124;6.226;2023-03-01T10:49:47;4.70;;;2.28;;
76021;SDS011;64718;52.124;6.226;2023-03-01T10:52:18;4.78;;;2.35;;
76021;SDS011;64718;52.124;6.226;2023-03-01T10:54:50;5.15;;;2.63;;
76021;SDS011;64718;52.124;6.226;2023-03-01T10:57:33;4.25;;;2.42;;
76021;SDS011;64718;52.124;6.226;2023-03-01T11:00:16;4.00;;;2.78;;
76021;SDS011;64718;52.124;6.226;2023-03-01T11:02:48;4.55;;;2.35;;
76021;SDS011;64718;52.124;6.226;2023-03-01T11:05:19;3.65;;;2.85;;
76021;SDS011;64718;52.124;6.226;2023-03-01T11:07:50;3.30;;;1.98;;
76021;SDS011;64718;52.124;6.226;2023-03-01T11:12:45;4.20;;;2.63;;
76021;SDS011;64718;52.124;6.226;2023-03-01T11:15:19;5.00;;;2.78;;
76021;SDS011;64718;52.124;6.226;2023-03-01T11:17:49;4.93;;;2.60;;
76021;SDS011;64718;52.124;6.226;2023-03-01T11:20:20;5.53;;;2.97;;
76021;SDS011;64718;52.124;6.226;2023-03-01T11:22:52;4.25;;;2.03;;
76021;SDS011;64718;52.124;6.226;2023-03-01T11:25:21;6.35;;;3.75;;
76021;SDS011;64718;52.124;6.226;2023-03-01T11:27:51;6.22;;;2.40;;
76021;SDS011;64718;52.124;6.226;2023-03-01T11:30:20;5.30;;;3.42;;
76021;SDS011;64718;52.124;6.226;2023-03-01T11:32:54;3.60;;;2.50;;
76021;SDS011;64718;52.124;6.226;2023-03-01T11:35:30;5.07;;;2.80;;
76021;SDS011;64718;52.124;6.226;2023-03-01T11:38:03;5.82;;;3.22;;
76021;SDS011;64718;52.124;6.226;2023-03-01T11:40:43;5.97;;;2.95;;
76021;SDS011;64718;52.124;6.226;2023-03-01T11:43:15;4.68;;;2.70;;
76021;SDS011;64718;52.124;6.226;2023-03-01T11:45:50;4.20;;;2.80;;
76021;SDS011;64718;52.124;6.226;2023-03-01T11:48:34;5.50;;;2.47;;
76021;SDS011;64718;52.124;6.226;2023-03-01T11:51:14;3.97;;;3.00;;
76021;SDS011;64718;52.124;6.226;2023-03-01T11:56:40;5.22;;;3.22;;
76021;SDS011;64718;52.124;6.226;2023-03-01T12:05:34;4.82;;;2.28;;
76021;SDS011;64718;52.124;6.226;2023-03-01T12:08:20;4.07;;;2.20;;
76021;SDS011;64718;52.124;6.226;2023-03-01T12:10:56;4.25;;;2.83;;
76021;SDS011;64718;52.124;6.226;2023-03-01T12:13:46;4.80;;;2.83;;
76021;SDS011;64718;52.124;6.226;2023-03-01T12:16:40;4.38;;;2.47;;
76021;SDS011;64718;52.124;6.226;2023-03-01T12:22:35;4.53;;;3.15;;
76021;SDS011;64718;52.124;6.226;2023-03-01T12:25:17;5.28;;;2.78;;
76021;SDS011;64718;52.124;6.226;2023-03-01T12:28:03;3.55;;;2.88;;
76021;SDS011;64718;52.124;6.226;2023-03-01T12:30:44;4.63;;;3.13;;
76021;SDS011;64718;52.124;6.226;2023-03-01T12:33:38;4.10;;;3.10;;
76021;SDS011;64718;52.124;6.226;2023-03-01T12:39:21;4.60;;;2.20;;
76021;SDS011;64718;52.124;6.226;2023-03-01T12:42:03;4.18;;;2.13;;
76021;SDS011;64718;52.124;6.226;2023-03-01T12:44:42;4.82;;;2.30;;
76021;SDS011;64718;52.124;6.226;2023-03-01T12:47:51;3.90;;;2.92;;
76021;SDS011;64718;52.124;6.226;2023-03-01T12:50:35;5.95;;;2.53;;
76021;SDS011;64718;52.124;6.226;2023-03-01T12:53:07;3.95;;;2.38;;
76021;SDS011;64718;52.124;6.226;2023-03-01T12:55:46;4.20;;;3.03;;
76021;SDS011;64718;52.124;6.226;2023-03-01T12:58:17;4.65;;;2.20;;
76021;SDS011;64718;52.124;6.226;2023-03-01T13:00:54;5.78;;;2.55;;
76021;SDS011;64718;52.124;6.226;2023-03-01T13:03:33;4.28;;;2.70;;
76021;SDS011;64718;52.124;6.226;2023-03-01T13:06:11;5.32;;;2.75;;
76021;SDS011;64718;52.124;6.226;2023-03-01T13:08:46;3.85;;;2.50;;
76021;SDS011;64718;52.124;6.226;2023-03-01T13:11:16;5.15;;;2.58;;
76021;SDS011;64718;52.124;6.226;2023-03-01T13:13:46;3.97;;;2.40;;
76021;SDS011;64718;52.124;6.226;2023-03-01T13:16:21;4.00;;;3.38;;
76021;SDS011;64718;52.124;6.226;2023-03-01T13:19:07;5.15;;;2.35;;
76021;SDS011;64718;52.124;6.226;2023-03-01T13:21:39;4.50;;;2.63;;
76021;SDS011;64718;52.124;6.226;2023-03-01T13:27:08;3.67;;;2.45;;
76021;SDS011;64718;52.124;6.226;2023-03-01T13:29:45;4.15;;;2.70;;
76021;SDS011;64718;52.124;6.226;2023-03-01T13:32:18;3.85;;;2.58;;
76021;SDS011;64718;52.124;6.226;2023-03-01T13:34:47;4.55;;;2.20;;
76021;SDS011;64718;52.124;6.226;2023-03-01T13:37:25;5.68;;;2.88;;
76021;SDS011;64718;52.124;6.226;2023-03-01T13:39:55;4.50;;;2.65;;
76021;SDS011;64718;52.124;6.226;2023-03-01T13:42:34;4.32;;;2.50;;
76021;SDS011;64718;52.124;6.226;2023-03-01T13:47:41;4.03;;;2.17;;
76021;SDS011;64718;52.124;6.226;2023-03-01T13:50:15;3.67;;;2.58;;
76021;SDS011;64718;52.124;6.226;2023-03-01T13:52:45;3.75;;;2.55;;
76021;SDS011;64718;52.124;6.226;2023-03-01T13:55:16;4.47;;;2.97;;
76021;SDS011;64718;52.124;6.226;2023-03-01T13:57:46;3.60;;;2.10;;
76021;SDS011;64718;52.124;6.226;2023-03-01T14:00:27;3.28;;;2.50;;
76021;SDS011;64718;52.124;6.226;2023-03-01T14:03:03;2.00;;;1.45;;
76021;SDS011;64718;52.124;6.226;2023-03-01T14:05:34;5.50;;;3.15;;
76021;SDS011;64718;52.124;6.226;2023-03-01T14:08:01;5.05;;;2.45;;
76021;SDS011;64718;52.124;6.226;2023-03-01T14:10:31;4.38;;;2.35;;
76021;SDS011;64718;52.124;6.226;2023-03-01T14:13:08;4.43;;;2.40;;
76021;SDS011;64718;52.124;6.226;2023-03-01T14:15:54;3.78;;;2.13;;
76021;SDS011;64718;52.124;6.226;2023-03-01T14:18:34;3.13;;;2.83;;
76021;SDS011;64718;52.124;6.226;2023-03-01T14:21:07;5.35;;;1.98;;
76021;SDS011;64718;52.124;6.226;2023-03-01T14:23:34;3.85;;;1.85;;
76021;SDS011;64718;52.124;6.226;2023-03-01T14:26:04;1.88;;;1.23;;
76021;SDS011;64718;52.124;6.226;2023-03-01T14:28:31;3.47;;;2.00;;
76021;SDS011;64718;52.124;6.226;2023-03-01T14:31:03;2.65;;;1.77;;
76021;SDS011;64718;52.124;6.226;2023-03-01T14:33:59;3.10;;;2.03;;
76021;SDS011;64718;52.124;6.226;2023-03-01T14:36:26;4.10;;;2.00;;
76021;SDS011;64718;52.124;6.226;2023-03-01T14:38:53;3.47;;;2.30;;
76021;SDS011;64718;52.124;6.226;2023-03-01T14:41:20;2.60;;;2.10;;
76021;SDS011;64718;52.124;6.226;2023-03-01T14:43:49;2.45;;;2.20;;
76021;SDS011;64718;52.124;6.226;2023-03-01T14:46:20;2.72;;;1.88;;
76021;SDS011;64718;52.124;6.226;2023-03-01T14:48:50;2.83;;;1.65;;
76021;SDS011;64718;52.124;6.226;2023-03-01T14:51:17;2.60;;;1.63;;
76021;SDS011;64718;52.124;6.226;2023-03-01T14:53:44;2.90;;;1.42;;
76021;SDS011;64718;52.124;6.226;2023-03-01T14:56:12;2.92;;;1.90;;
76021;SDS011;64718;52.124;6.226;2023-03-01T14:58:40;4.28;;;1.90;;
76021;SDS011;64718;52.124;6.226;2023-03-01T15:01:06;3.97;;;1.85;;
76021;SDS011;64718;52.124;6.226;2023-03-01T15:03:35;3.50;;;1.65;;
76021;SDS011;64718;52.124;6.226;2023-03-01T15:06:05;3.75;;;1.83;;
76021;SDS011;64718;52.124;6.226;2023-03-01T15:08:33;3.00;;;1.77;;
76021;SDS011;64718;52.124;6.226;2023-03-01T15:11:02;3.08;;;1.40;;
76021;SDS011;64718;52.124;6.226;2023-03-01T15:13:31;2.60;;;1.90;;
76021;SDS011;64718;52.124;6.226;2023-03-01T15:16:06;3.55;;;1.95;;
76021;SDS011;64718;52.124;6.226;2023-03-01T15:18:36;3.20;;;1.65;;
76021;SDS011;64718;52.124;6.226;2023-03-01T15:21:08;4.22;;;1.77;;
76021;SDS011;64718;52.124;6.226;2023-03-01T15:23:36;2.83;;;1.73;;
76021;SDS011;64718;52.124;6.226;2023-03-01T15:26:05;3.38;;;1.40;;
76021;SDS011;64718;52.124;6.226;2023-03-01T15:28:33;2.70;;;1.40;;
76021;SDS011;64718;52.124;6.226;2023-03-01T15:31:02;2.60;;;1.80;;
76021;SDS011;64718;52.124;6.226;2023-03-01T15:33:39;2.33;;;1.60;;
76021;SDS011;64718;52.124;6.226;2023-03-01T15:36:31;2.17;;;1.55;;